sensor_id;sensor_type;location;lat;lon;timestamp;temperature;humidity
38090;DHT22;23904;52.322;10.232;2023-07-13T00:00:03;19.80;99.90
38090;DHT22;23904;52.322;10.232;2023-07-13T00:02:34;19.80;99.80
38090;DHT22;23904;52.322;10.232;2023-07-13T00:05:00;19.80;99.90
38090;DHT22;23904;52.322;10.232;2023-07-13T00:07:26;19.80;99.90
38090;DHT22;23904;52.322;10.232;2023-07-13T00:09:51;19.80;99.90
38090;DHT22;23904;52.322;10.232;2023-07-13T00:12:26;19.80;99.90
38090;DHT22;23904;52.322;10.232;2023-07-13T00:14:56;19.80;99.90
38090;DHT22;23904;52.322;10.232;2023-07-13T00:17:26;19.80;99.90
38090;DHT22;23904;52.322;10.232;2023-07-13T00:19:52;19.80;99.90
38090;DHT22;23904;52.322;10.232;2023-07-13T00:22:18;19.70;99.90
38090;DHT22;23904;52.322;10.232;2023-07-13T00:24:45;19.60;99.90
38090;DHT22;23904;52.322;10.232;2023-07-13T00:27:11;19.60;99.90
38090;DHT22;23904;52.322;10.232;2023-07-13T00:29:37;19.50;99.90
38090;DHT22;23904;52.322;10.232;2023-07-13T00:32:04;19.40;99.90
38090;DHT22;23904;52.322;10.232;2023-07-13T00:34:30;19.40;99.90
38090;DHT22;23904;52.322;10.232;2023-07-13T00:36:56;19.30;99.90
38090;DHT22;23904;52.322;10.232;2023-07-13T00:39:22;19.30;99.90
38090;DHT22;23904;52.322;10.232;2023-07-13T00:41:48;19.30;99.90
38090;DHT22;23904;52.322;10.232;2023-07-13T00:44:15;19.30;99.90
38090;DHT22;23904;52.322;10.232;2023-07-13T00:46:42;19.20;99.90
38090;DHT22;23904;52.322;10.232;2023-07-13T00:49:13;19.20;99.90
38090;DHT22;23904;52.322;10.232;2023-07-13T00:51:48;19.30;99.90
38090;DHT22;23904;52.322;10.232;2023-07-13T00:54:36;19.30;99.90
38090;DHT22;23904;52.322;10.232;2023-07-13T00:57:08;19.30;99.90
38090;DHT22;23904;52.322;10.232;2023-07-13T00:59:38;19.40;99.90
38090;DHT22;23904;52.322;10.232;2023-07-13T01:02:05;19.40;99.90
38090;DHT22;23904;52.322;10.232;2023-07-13T01:04:31;19.30;99.90
38090;DHT22;23904;52.322;10.232;2023-07-13T01:06:57;19.20;99.90
38090;DHT22;23904;52.322;10.232;2023-07-13T01:09:23;19.20;99.90
38090;DHT22;23904;52.322;10.232;2023-07-13T01:11:49;19.10;99.90
38090;DHT22;23904;52.322;10.232;2023-07-13T01:14:14;19.10;99.90
38090;DHT22;23904;52.322;10.232;2023-07-13T01:16:41;19.00;99.90
38090;DHT22;23904;52.322;10.232;2023-07-13T01:19:19;19.00;99.90
38090;DHT22;23904;52.322;10.232;2023-07-13T01:21:51;18.90;99.90
38090;DHT22;23904;52.322;10.232;2023-07-13T01:24:18;18.80;99.90
38090;DHT22;23904;52.322;10.232;2023-07-13T01:26:43;18.80;99.90
38090;DHT22;23904;52.322;10.232;2023-07-13T01:29:09;18.80;99.90
38090;DHT22;23904;52.322;10.232;2023-07-13T01:31:34;18.80;99.90
38090;DHT22;23904;52.322;10.232;2023-07-13T01:34:00;18.80;99.90
38090;DHT22;23904;52.322;10.232;2023-07-13T01:36:26;18.80;99.90
38090;DHT22;23904;52.322;10.232;2023-07-13T01:38:51;18.80;99.90
38090;DHT22;23904;52.322;10.232;2023-07-13T01:41:17;18.80;99.90
38090;DHT22;23904;52.322;10.232;2023-07-13T01:43:42;18.80;99.90
38090;DHT22;23904;52.322;10.232;2023-07-13T01:46:08;18.80;99.90
38090;DHT22;23904;52.322;10.232;2023-07-13T01:48:34;18.80;99.90
38090;DHT22;23904;52.322;10.232;2023-07-13T01:50:59;18.70;99.90
38090;DHT22;23904;52.322;10.232;2023-07-13T01:53:25;18.80;99.90
38090;DHT22;23904;52.322;10.232;2023-07-13T01:55:50;18.80;99.90
38090;DHT22;23904;52.322;10.232;2023-07-13T01:58:16;18.60;99.90
38090;DHT22;23904;52.322;10.232;2023-07-13T02:00:41;18.50;99.90
38090;DHT22;23904;52.322;10.232;2023-07-13T02:03:07;18.50;99.90
38090;DHT22;23904;52.322;10.232;2023-07-13T02:05:32;18.40;99.90
38090;DHT22;23904;52.322;10.232;2023-07-13T02:07:58;18.40;99.90
38090;DHT22;23904;52.322;10.232;2023-07-13T02:10:24;18.40;99.90
38090;DHT22;23904;52.322;10.232;2023-07-13T02:12:50;18.40;99.90
38090;DHT22;23904;52.322;10.232;2023-07-13T02:15:16;18.30;99.90
38090;DHT22;23904;52.322;10.232;2023-07-13T02:17:42;18.30;99.90
38090;DHT22;23904;52.322;10.232;2023-07-13T02:20:08;18.30;99.90
38090;DHT22;23904;52.322;10.232;2023-07-13T02:22:34;18.30;99.90
38090;DHT22;23904;52.322;10.232;2023-07-13T02:25:00;18.30;99.90
38090;DHT22;23904;52.322;10.232;2023-07-13T02:27:26;18.20;99.90
38090;DHT22;23904;52.322;10.232;2023-07-13T02:29:51;18.20;99.90
38090;DHT22;23904;52.322;10.232;2023-07-13T02:32:18;18.20;99.90
38090;DHT22;23904;52.322;10.232;2023-07-13T02:34:43;18.20;99.90
38090;DHT22;23904;52.322;10.232;2023-07-13T02:37:09;18.20;99.90
38090;DHT22;23904;52.322;10.232;2023-07-13T02:39:35;18.20;99.90
38090;DHT22;23904;52.322;10.232;2023-07-13T02:42:00;18.20;99.90
38090;DHT22;23904;52.322;10.232;2023-07-13T02:44:26;18.20;99.90
38090;DHT22;23904;52.322;10.232;2023-07-13T02:46:52;18.20;99.90
38090;DHT22;23904;52.322;10.232;2023-07-13T02:49:18;18.20;99.90
38090;DHT22;23904;52.322;10.232;2023-07-13T02:51:43;18.20;99.90
38090;DHT22;23904;52.322;10.232;2023-07-13T02:54:09;18.20;99.90
38090;DHT22;23904;52.322;10.232;2023-07-13T02:56:35;18.10;99.90
38090;DHT22;23904;52.322;10.232;2023-07-13T02:59:01;18.00;99.90
38090;DHT22;23904;52.322;10.232;2023-07-13T03:01:28;18.00;99.90
38090;DHT22;23904;52.322;10.232;2023-07-13T03:03:53;18.00;99.90
38090;DHT22;23904;52.322;10.232;2023-07-13T03:06:19;17.90;99.90
38090;DHT22;23904;52.322;10.232;2023-07-13T03:08:45;17.90;99.90
38090;DHT22;23904;52.322;10.232;2023-07-13T03:11:13;17.90;99.90
38090;DHT22;23904;52.322;10.232;2023-07-13T03:13:41;17.90;99.90
38090;DHT22;23904;52.322;10.232;2023-07-13T03:16:07;17.80;99.90
38090;DHT22;23904;52.322;10.232;2023-07-13T03:18:35;17.80;99.90
38090;DHT22;23904;52.322;10.232;2023-07-13T03:21:01;17.80;99.90
38090;DHT22;23904;52.322;10.232;2023-07-13T03:23:27;17.70;99.90
38090;DHT22;23904;52.322;10.232;2023-07-13T03:26:11;17.60;99.90
38090;DHT22;23904;52.322;10.232;2023-07-13T03:28:39;17.70;99.90
38090;DHT22;23904;52.322;10.232;2023-07-13T03:31:11;17.60;99.90
38090;DHT22;23904;52.322;10.232;2023-07-13T03:33:39;17.50;99.90
38090;DHT22;23904;52.322;10.232;2023-07-13T03:36:06;17.60;99.90
38090;DHT22;23904;52.322;10.232;2023-07-13T03:38:33;17.50;99.90
38090;DHT22;23904;52.322;10.232;2023-07-13T03:41:00;17.50;99.90
38090;DHT22;23904;52.322;10.232;2023-07-13T03:43:25;17.40;99.90
38090;DHT22;23904;52.322;10.232;2023-07-13T03:45:51;17.40;99.90
38090;DHT22;23904;52.322;10.232;2023-07-13T03:48:17;17.40;99.90
38090;DHT22;23904;52.322;10.232;2023-07-13T03:50:42;17.40;99.90
38090;DHT22;23904;52.322;10.232;2023-07-13T03:53:08;17.40;99.90
38090;DHT22;23904;52.322;10.232;2023-07-13T03:55:34;17.30;99.90
38090;DHT22;23904;52.322;10.232;2023-07-13T03:58:53;17.30;99.90
38090;DHT22;23904;52.322;10.232;2023-07-13T04:01:13;17.40;99.90
38090;DHT22;23904;52.322;10.232;2023-07-13T04:03:41;17.50;99.90
38090;DHT22;23904;52.322;10.232;2023-07-13T04:06:08;17.40;99.90
38090;DHT22;23904;52.322;10.232;2023-07-13T04:08:51;17.40;99.90
38090;DHT22;23904;52.322;10.232;2023-07-13T04:11:20;17.40;99.90
38090;DHT22;23904;52.322;10.232;2023-07-13T04:13:47;17.40;99.90
38090;DHT22;23904;52.322;10.232;2023-07-13T04:16:14;17.40;99.90
38090;DHT22;23904;52.322;10.232;2023-07-13T04:18:40;17.40;99.90
38090;DHT22;23904;52.322;10.232;2023-07-13T04:21:07;17.50;99.90
38090;DHT22;23904;52.322;10.232;2023-07-13T04:23:34;17.50;99.90
38090;DHT22;23904;52.322;10.232;2023-07-13T04:25:59;17.50;99.90
38090;DHT22;23904;52.322;10.232;2023-07-13T04:28:25;17.60;99.90
38090;DHT22;23904;52.322;10.232;2023-07-13T04:30:51;17.70;99.90
38090;DHT22;23904;52.322;10.232;2023-07-13T04:33:17;17.80;99.90
38090;DHT22;23904;52.322;10.232;2023-07-13T04:35:43;17.80;99.90
38090;DHT22;23904;52.322;10.232;2023-07-13T04:38:10;17.80;99.90
38090;DHT22;23904;52.322;10.232;2023-07-13T04:40:36;17.80;99.90
38090;DHT22;23904;52.322;10.232;2023-07-13T04:43:02;17.80;99.90
38090;DHT22;23904;52.322;10.232;2023-07-13T04:45:28;17.80;99.90
38090;DHT22;23904;52.322;10.232;2023-07-13T04:47:54;17.80;99.90
38090;DHT22;23904;52.322;10.232;2023-07-13T04:50:19;17.90;99.90
38090;DHT22;23904;52.322;10.232;2023-07-13T04:52:51;17.90;99.90
38090;DHT22;23904;52.322;10.232;2023-07-13T04:55:18;17.90;99.90
38090;DHT22;23904;52.322;10.232;2023-07-13T04:57:44;18.00;99.90
38090;DHT22;23904;52.322;10.232;2023-07-13T05:00:11;18.00;99.90
38090;DHT22;23904;52.322;10.232;2023-07-13T05:02:38;18.00;99.90
38090;DHT22;23904;52.322;10.232;2023-07-13T05:05:05;18.10;99.90
38090;DHT22;23904;52.322;10.232;2023-07-13T05:07:32;18.10;99.90
38090;DHT22;23904;52.322;10.232;2023-07-13T05:09:59;18.20;99.90
38090;DHT22;23904;52.322;10.232;2023-07-13T05:12:25;18.10;99.90
38090;DHT22;23904;52.322;10.232;2023-07-13T05:14:51;18.10;99.90
38090;DHT22;23904;52.322;10.232;2023-07-13T05:17:17;18.10;99.90
38090;DHT22;23904;52.322;10.232;2023-07-13T05:19:43;18.10;99.90
38090;DHT22;23904;52.322;10.232;2023-07-13T05:22:08;18.20;99.90
38090;DHT22;23904;52.322;10.232;2023-07-13T05:24:34;18.30;99.90
38090;DHT22;23904;52.322;10.232;2023-07-13T05:27:00;18.30;99.90
38090;DHT22;23904;52.322;10.232;2023-07-13T05:29:26;18.40;99.90
38090;DHT22;23904;52.322;10.232;2023-07-13T05:31:52;18.40;99.90
38090;DHT22;23904;52.322;10.232;2023-07-13T05:34:17;18.50;99.90
38090;DHT22;23904;52.322;10.232;2023-07-13T05:36:43;18.50;99.90
38090;DHT22;23904;52.322;10.232;2023-07-13T05:39:09;18.60;99.90
38090;DHT22;23904;52.322;10.232;2023-07-13T05:41:35;18.60;99.90
38090;DHT22;23904;52.322;10.232;2023-07-13T05:44:01;18.60;99.90
38090;DHT22;23904;52.322;10.232;2023-07-13T05:46:27;18.50;99.90
38090;DHT22;23904;52.322;10.232;2023-07-13T05:48:52;18.60;99.90
38090;DHT22;23904;52.322;10.232;2023-07-13T05:51:18;18.60;99.90
38090;DHT22;23904;52.322;10.232;2023-07-13T05:53:43;18.70;99.90
38090;DHT22;23904;52.322;10.232;2023-07-13T05:56:09;18.80;99.90
38090;DHT22;23904;52.322;10.232;2023-07-13T05:58:34;18.90;99.90
38090;DHT22;23904;52.322;10.232;2023-07-13T06:01:06;19.00;99.90
38090;DHT22;23904;52.322;10.232;2023-07-13T06:03:34;19.10;99.90
38090;DHT22;23904;52.322;10.232;2023-07-13T06:06:00;19.20;99.90
38090;DHT22;23904;52.322;10.232;2023-07-13T06:08:26;19.10;99.90
38090;DHT22;23904;52.322;10.232;2023-07-13T06:10:52;19.10;99.90
38090;DHT22;23904;52.322;10.232;2023-07-13T06:13:18;19.10;99.90
38090;DHT22;23904;52.322;10.232;2023-07-13T06:15:50;19.20;99.90
38090;DHT22;23904;52.322;10.232;2023-07-13T06:18:16;19.30;99.90
38090;DHT22;23904;52.322;10.232;2023-07-13T06:20:42;19.50;99.90
38090;DHT22;23904;52.322;10.232;2023-07-13T06:23:07;19.50;99.90
38090;DHT22;23904;52.322;10.232;2023-07-13T06:25:33;19.50;99.90
38090;DHT22;23904;52.322;10.232;2023-07-13T06:27:59;19.60;99.90
38090;DHT22;23904;52.322;10.232;2023-07-13T06:30:24;19.80;99.90
38090;DHT22;23904;52.322;10.232;2023-07-13T06:32:50;20.00;99.90
38090;DHT22;23904;52.322;10.232;2023-07-13T06:35:16;20.00;99.90
38090;DHT22;23904;52.322;10.232;2023-07-13T06:37:41;19.90;99.90
38090;DHT22;23904;52.322;10.232;2023-07-13T06:40:07;19.80;99.90
38090;DHT22;23904;52.322;10.232;2023-07-13T06:42:33;19.70;99.90
38090;DHT22;23904;52.322;10.232;2023-07-13T06:44:59;19.70;99.90
38090;DHT22;23904;52.322;10.232;2023-07-13T06:47:24;19.80;99.90
38090;DHT22;23904;52.322;10.232;2023-07-13T06:49:50;19.90;99.90
38090;DHT22;23904;52.322;10.232;2023-07-13T06:52:15;20.00;99.90
38090;DHT22;23904;52.322;10.232;2023-07-13T06:54:41;20.10;99.90
38090;DHT22;23904;52.322;10.232;2023-07-13T06:57:06;20.00;99.90
38090;DHT22;23904;52.322;10.232;2023-07-13T06:59:32;19.90;99.90
38090;DHT22;23904;52.322;10.232;2023-07-13T07:01:58;19.90;99.90
38090;DHT22;23904;52.322;10.232;2023-07-13T07:04:23;20.00;99.90
38090;DHT22;23904;52.322;10.232;2023-07-13T07:06:49;20.10;99.90
38090;DHT22;23904;52.322;10.232;2023-07-13T07:09:14;20.20;99.90
38090;DHT22;23904;52.322;10.232;2023-07-13T07:11:42;20.20;99.90
38090;DHT22;23904;52.322;10.232;2023-07-13T07:14:08;20.40;99.90
38090;DHT22;23904;52.322;10.232;2023-07-13T07:16:33;20.40;99.90
38090;DHT22;23904;52.322;10.232;2023-07-13T07:18:59;20.30;99.90
38090;DHT22;23904;52.322;10.232;2023-07-13T07:21:25;20.30;99.90
38090;DHT22;23904;52.322;10.232;2023-07-13T07:23:51;20.40;99.50
38090;DHT22;23904;52.322;10.232;2023-07-13T07:26:17;20.40;98.80
38090;DHT22;23904;52.322;10.232;2023-07-13T07:28:43;20.40;99.10
38090;DHT22;23904;52.322;10.232;2023-07-13T07:31:09;20.40;99.80
38090;DHT22;23904;52.322;10.232;2023-07-13T07:33:35;20.50;99.20
38090;DHT22;23904;52.322;10.232;2023-07-13T07:36:01;20.40;98.80
38090;DHT22;23904;52.322;10.232;2023-07-13T07:38:27;20.40;98.30
38090;DHT22;23904;52.322;10.232;2023-07-13T07:40:53;20.40;98.30
38090;DHT22;23904;52.322;10.232;2023-07-13T07:43:18;20.50;98.50
38090;DHT22;23904;52.322;10.232;2023-07-13T07:45:45;20.60;98.00
38090;DHT22;23904;52.322;10.232;2023-07-13T07:48:11;20.40;98.30
38090;DHT22;23904;52.322;10.232;2023-07-13T07:50:37;20.40;98.60
38090;DHT22;23904;52.322;10.232;2023-07-13T07:53:04;20.60;98.60
38090;DHT22;23904;52.322;10.232;2023-07-13T07:55:34;20.70;98.20
38090;DHT22;23904;52.322;10.232;2023-07-13T07:58:00;20.60;97.90
38090;DHT22;23904;52.322;10.232;2023-07-13T08:00:26;20.60;97.30
38090;DHT22;23904;52.322;10.232;2023-07-13T08:02:54;20.70;97.10
38090;DHT22;23904;52.322;10.232;2023-07-13T08:05:20;20.80;96.80
38090;DHT22;23904;52.322;10.232;2023-07-13T08:07:45;20.90;97.10
38090;DHT22;23904;52.322;10.232;2023-07-13T08:10:11;21.10;96.50
38090;DHT22;23904;52.322;10.232;2023-07-13T08:12:37;21.20;96.00
38090;DHT22;23904;52.322;10.232;2023-07-13T08:15:05;21.20;95.70
38090;DHT22;23904;52.322;10.232;2023-07-13T08:17:32;21.10;96.00
38090;DHT22;23904;52.322;10.232;2023-07-13T08:19:57;21.30;96.00
38090;DHT22;23904;52.322;10.232;2023-07-13T08:22:23;21.40;95.90
38090;DHT22;23904;52.322;10.232;2023-07-13T08:24:49;21.40;96.10
38090;DHT22;23904;52.322;10.232;2023-07-13T08:27:21;21.30;96.20
38090;DHT22;23904;52.322;10.232;2023-07-13T08:29:48;21.40;96.70
38090;DHT22;23904;52.322;10.232;2023-07-13T08:32:14;21.40;95.80
38090;DHT22;23904;52.322;10.232;2023-07-13T08:34:40;21.50;95.90
38090;DHT22;23904;52.322;10.232;2023-07-13T08:37:06;21.80;95.80
38090;DHT22;23904;52.322;10.232;2023-07-13T08:39:34;21.90;95.50
38090;DHT22;23904;52.322;10.232;2023-07-13T08:42:04;22.10;94.60
38090;DHT22;23904;52.322;10.232;2023-07-13T08:47:23;22.30;94.40
38090;DHT22;23904;52.322;10.232;2023-07-13T08:49:50;22.50;93.60
38090;DHT22;23904;52.322;10.232;2023-07-13T08:52:33;22.90;93.50
38090;DHT22;23904;52.322;10.232;2023-07-13T08:55:12;22.90;93.50
38090;DHT22;23904;52.322;10.232;2023-07-13T08:57:41;23.10;92.90
38090;DHT22;23904;52.322;10.232;2023-07-13T09:00:12;23.70;92.30
38090;DHT22;23904;52.322;10.232;2023-07-13T09:02:46;23.50;92.00
38090;DHT22;23904;52.322;10.232;2023-07-13T09:05:28;23.10;92.70
38090;DHT22;23904;52.322;10.232;2023-07-13T09:11:23;22.80;92.30
38090;DHT22;23904;52.322;10.232;2023-07-13T09:14:06;22.70;93.00
38090;DHT22;23904;52.322;10.232;2023-07-13T09:16:41;22.70;93.10
38090;DHT22;23904;52.322;10.232;2023-07-13T09:19:13;22.90;93.30
38090;DHT22;23904;52.322;10.232;2023-07-13T09:21:44;23.50;92.60
38090;DHT22;23904;52.322;10.232;2023-07-13T09:24:39;23.60;92.00
38090;DHT22;23904;52.322;10.232;2023-07-13T09:32:42;25.80;85.80
38090;DHT22;23904;52.322;10.232;2023-07-13T09:35:12;25.40;87.80
38090;DHT22;23904;52.322;10.232;2023-07-13T09:37:45;24.80;87.80
38090;DHT22;23904;52.322;10.232;2023-07-13T09:40:28;24.30;90.00
38090;DHT22;23904;52.322;10.232;2023-07-13T09:42:58;24.70;90.60
38090;DHT22;23904;52.322;10.232;2023-07-13T09:45:29;24.70;90.10
38090;DHT22;23904;52.322;10.232;2023-07-13T09:48:05;25.00;89.00
38090;DHT22;23904;52.322;10.232;2023-07-13T09:50:34;25.70;87.30
38090;DHT22;23904;52.322;10.232;2023-07-13T09:53:01;26.40;84.60
38090;DHT22;23904;52.322;10.232;2023-07-13T09:55:34;27.50;81.60
38090;DHT22;23904;52.322;10.232;2023-07-13T09:58:20;28.00;79.30
38090;DHT22;23904;52.322;10.232;2023-07-13T10:00:56;28.70;77.70
38090;DHT22;23904;52.322;10.232;2023-07-13T10:03:32;27.90;76.40
38090;DHT22;23904;52.322;10.232;2023-07-13T10:06:13;27.80;78.70
38090;DHT22;23904;52.322;10.232;2023-07-13T10:08:40;28.20;77.80
38090;DHT22;23904;52.322;10.232;2023-07-13T10:11:27;27.50;78.60
38090;DHT22;23904;52.322;10.232;2023-07-13T10:14:20;27.90;77.50
38090;DHT22;23904;52.322;10.232;2023-07-13T10:16:50;28.30;76.00
38090;DHT22;23904;52.322;10.232;2023-07-13T10:19:26;29.20;73.00
38090;DHT22;23904;52.322;10.232;2023-07-13T10:24:33;29.50;71.80
38090;DHT22;23904;52.322;10.232;2023-07-13T10:27:15;28.90;71.70
38090;DHT22;23904;52.322;10.232;2023-07-13T10:29:50;27.90;73.40
38090;DHT22;23904;52.322;10.232;2023-07-13T10:32:24;27.50;75.80
38090;DHT22;23904;52.322;10.232;2023-07-13T10:34:50;28.60;72.60
38090;DHT22;23904;52.322;10.232;2023-07-13T10:37:24;29.60;69.60
38090;DHT22;23904;52.322;10.232;2023-07-13T10:39:54;28.80;71.00
38090;DHT22;23904;52.322;10.232;2023-07-13T10:42:29;28.60;71.20
38090;DHT22;23904;52.322;10.232;2023-07-13T10:44:57;27.80;71.30
38090;DHT22;23904;52.322;10.232;2023-07-13T10:47:23;27.20;73.80
38090;DHT22;23904;52.322;10.232;2023-07-13T10:49:54;27.00;74.50
38090;DHT22;23904;52.322;10.232;2023-07-13T10:52:47;27.20;75.20
38090;DHT22;23904;52.322;10.232;2023-07-13T11:01:02;29.10;69.20
38090;DHT22;23904;52.322;10.232;2023-07-13T11:03:38;30.70;65.80
38090;DHT22;23904;52.322;10.232;2023-07-13T11:07:17;29.90;66.30
38090;DHT22;23904;52.322;10.232;2023-07-13T11:09:38;29.00;68.20
38090;DHT22;23904;52.322;10.232;2023-07-13T11:17:38;26.70;74.10
38090;DHT22;23904;52.322;10.232;2023-07-13T11:22:46;26.40;74.90
38090;DHT22;23904;52.322;10.232;2023-07-13T11:25:30;26.10;72.60
38090;DHT22;23904;52.322;10.232;2023-07-13T11:28:21;26.00;73.30
38090;DHT22;23904;52.322;10.232;2023-07-13T11:30:49;26.40;73.00
38090;DHT22;23904;52.322;10.232;2023-07-13T11:33:47;27.30;70.80
38090;DHT22;23904;52.322;10.232;2023-07-13T11:36:18;28.30;68.10
38090;DHT22;23904;52.322;10.232;2023-07-13T11:41:23;31.50;63.10
38090;DHT22;23904;52.322;10.232;2023-07-13T11:43:56;31.80;60.80
38090;DHT22;23904;52.322;10.232;2023-07-13T11:46:29;31.90;59.20
38090;DHT22;23904;52.322;10.232;2023-07-13T11:48:55;31.20;59.30
38090;DHT22;23904;52.322;10.232;2023-07-13T11:51:27;31.30;59.40
38090;DHT22;23904;52.322;10.232;2023-07-13T11:53:56;31.30;59.40
38090;DHT22;23904;52.322;10.232;2023-07-13T11:56:26;31.40;57.30
38090;DHT22;23904;52.322;10.232;2023-07-13T11:58:53;30.30;59.30
38090;DHT22;23904;52.322;10.232;2023-07-13T12:01:24;29.90;60.70
38090;DHT22;23904;52.322;10.232;2023-07-13T12:03:52;29.60;62.70
38090;DHT22;23904;52.322;10.232;2023-07-13T12:06:31;29.50;63.30
38090;DHT22;23904;52.322;10.232;2023-07-13T12:09:13;30.10;62.60
38090;DHT22;23904;52.322;10.232;2023-07-13T12:11:42;31.10;60.40
38090;DHT22;23904;52.322;10.232;2023-07-13T12:14:15;31.10;59.80
38090;DHT22;23904;52.322;10.232;2023-07-13T12:16:43;31.20;57.40
38090;DHT22;23904;52.322;10.232;2023-07-13T12:19:21;31.20;57.40
38090;DHT22;23904;52.322;10.232;2023-07-13T12:21:49;30.90;57.40
38090;DHT22;23904;52.322;10.232;2023-07-13T12:24:17;31.50;57.50
38090;DHT22;23904;52.322;10.232;2023-07-13T12:26:46;32.70;55.10
38090;DHT22;23904;52.322;10.232;2023-07-13T12:29:17;33.00;54.00
38090;DHT22;23904;52.322;10.232;2023-07-13T12:31:48;32.30;55.20
38090;DHT22;23904;52.322;10.232;2023-07-13T12:34:19;31.00;56.50
38090;DHT22;23904;52.322;10.232;2023-07-13T12:36:49;30.70;58.30
38090;DHT22;23904;52.322;10.232;2023-07-13T12:39:37;30.80;58.30
38090;DHT22;23904;52.322;10.232;2023-07-13T12:44:57;30.20;57.70
38090;DHT22;23904;52.322;10.232;2023-07-13T12:47:25;29.30;59.40
38090;DHT22;23904;52.322;10.232;2023-07-13T12:49:57;28.60;60.70
38090;DHT22;23904;52.322;10.232;2023-07-13T12:52:34;29.10;60.90
38090;DHT22;23904;52.322;10.232;2023-07-13T12:55:20;29.30;61.40
38090;DHT22;23904;52.322;10.232;2023-07-13T12:57:52;29.30;61.00
38090;DHT22;23904;52.322;10.232;2023-07-13T13:00:35;28.70;60.60
38090;DHT22;23904;52.322;10.232;2023-07-13T13:06:00;28.00;61.10
38090;DHT22;23904;52.322;10.232;2023-07-13T13:08:29;27.50;61.30
38090;DHT22;23904;52.322;10.232;2023-07-13T13:10:55;26.90;61.70
38090;DHT22;23904;52.322;10.232;2023-07-13T13:13:21;26.70;63.00
38090;DHT22;23904;52.322;10.232;2023-07-13T13:15:47;26.40;64.60
38090;DHT22;23904;52.322;10.232;2023-07-13T13:18:18;26.20;65.50
38090;DHT22;23904;52.322;10.232;2023-07-13T13:20:45;26.60;65.30
38090;DHT22;23904;52.322;10.232;2023-07-13T13:23:14;26.70;65.10
38090;DHT22;23904;52.322;10.232;2023-07-13T13:25:46;26.50;63.70
38090;DHT22;23904;52.322;10.232;2023-07-13T13:28:18;26.10;65.40
38090;DHT22;23904;52.322;10.232;2023-07-13T13:30:46;26.00;65.90
38090;DHT22;23904;52.322;10.232;2023-07-13T13:33:15;25.80;65.80
38090;DHT22;23904;52.322;10.232;2023-07-13T13:35:42;25.80;66.50
38090;DHT22;23904;52.322;10.232;2023-07-13T13:38:11;26.00;65.50
38090;DHT22;23904;52.322;10.232;2023-07-13T13:40:40;26.10;64.90
38090;DHT22;23904;52.322;10.232;2023-07-13T13:43:23;25.80;65.70
38090;DHT22;23904;52.322;10.232;2023-07-13T13:45:57;25.70;66.70
38090;DHT22;23904;52.322;10.232;2023-07-13T13:48:32;25.20;67.00
38090;DHT22;23904;52.322;10.232;2023-07-13T13:51:00;24.90;68.00
38090;DHT22;23904;52.322;10.232;2023-07-13T13:53:27;24.70;69.90
38090;DHT22;23904;52.322;10.232;2023-07-13T13:55:53;24.30;74.20
38090;DHT22;23904;52.322;10.232;2023-07-13T13:58:20;24.10;76.90
38090;DHT22;23904;52.322;10.232;2023-07-13T14:00:45;23.50;80.00
38090;DHT22;23904;52.322;10.232;2023-07-13T14:03:18;22.10;93.30
38090;DHT22;23904;52.322;10.232;2023-07-13T14:05:44;21.30;99.90
38090;DHT22;23904;52.322;10.232;2023-07-13T14:08:14;20.50;99.90
38090;DHT22;23904;52.322;10.232;2023-07-13T14:10:41;20.10;99.90
38090;DHT22;23904;52.322;10.232;2023-07-13T14:13:19;20.20;99.90
38090;DHT22;23904;52.322;10.232;2023-07-13T14:15:47;20.50;99.90
38090;DHT22;23904;52.322;10.232;2023-07-13T14:18:13;20.60;99.90
38090;DHT22;23904;52.322;10.232;2023-07-13T14:20:44;20.70;99.90
38090;DHT22;23904;52.322;10.232;2023-07-13T14:23:12;20.70;99.90
38090;DHT22;23904;52.322;10.232;2023-07-13T14:25:38;20.70;99.90
38090;DHT22;23904;52.322;10.232;2023-07-13T14:28:21;20.80;99.90
38090;DHT22;23904;52.322;10.232;2023-07-13T14:30:50;20.70;99.90
38090;DHT22;23904;52.322;10.232;2023-07-13T14:33:17;20.80;99.90
38090;DHT22;23904;52.322;10.232;2023-07-13T14:35:43;21.00;99.90
38090;DHT22;23904;52.322;10.232;2023-07-13T14:38:15;21.30;99.90
38090;DHT22;23904;52.322;10.232;2023-07-13T14:40:42;21.30;99.90
38090;DHT22;23904;52.322;10.232;2023-07-13T14:43:11;21.10;99.90
38090;DHT22;23904;52.322;10.232;2023-07-13T14:45:41;20.90;99.90
38090;DHT22;23904;52.322;10.232;2023-07-13T14:48:26;20.90;99.90
38090;DHT22;23904;52.322;10.232;2023-07-13T14:50:55;20.80;99.90
38090;DHT22;23904;52.322;10.232;2023-07-13T14:53:26;20.70;99.90
38090;DHT22;23904;52.322;10.232;2023-07-13T14:55:53;20.60;99.90
38090;DHT22;23904;52.322;10.232;2023-07-13T14:58:19;20.60;99.90
38090;DHT22;23904;52.322;10.232;2023-07-13T15:00:45;20.60;99.90
38090;DHT22;23904;52.322;10.232;2023-07-13T15:03:20;20.50;99.90
38090;DHT22;23904;52.322;10.232;2023-07-13T15:05:47;20.70;99.90
38090;DHT22;23904;52.322;10.232;2023-07-13T15:08:13;20.50;99.90
38090;DHT22;23904;52.322;10.232;2023-07-13T15:10:40;20.50;99.90
38090;DHT22;23904;52.322;10.232;2023-07-13T15:13:20;20.50;99.90
38090;DHT22;23904;52.322;10.232;2023-07-13T15:15:49;20.20;99.90
38090;DHT22;23904;52.322;10.232;2023-07-13T15:18:21;20.00;99.90
38090;DHT22;23904;52.322;10.232;2023-07-13T15:20:49;20.10;99.90
38090;DHT22;23904;52.322;10.232;2023-07-13T15:23:16;19.80;99.90
38090;DHT22;23904;52.322;10.232;2023-07-13T15:25:44;19.80;99.90
38090;DHT22;23904;52.322;10.232;2023-07-13T15:28:10;19.70;99.90
38090;DHT22;23904;52.322;10.232;2023-07-13T15:33:28;19.60;99.90
38090;DHT22;23904;52.322;10.232;2023-07-13T15:35:55;19.60;99.90
38090;DHT22;23904;52.322;10.232;2023-07-13T15:38:29;19.60;99.90
38090;DHT22;23904;52.322;10.232;2023-07-13T15:40:57;19.60;99.90
38090;DHT22;23904;52.322;10.232;2023-07-13T15:43:23;19.60;99.90
38090;DHT22;23904;52.322;10.232;2023-07-13T15:45:49;19.60;99.90
38090;DHT22;23904;52.322;10.232;2023-07-13T15:48:21;19.70;99.90
38090;DHT22;23904;52.322;10.232;2023-07-13T15:50:51;19.80;99.90
38090;DHT22;23904;52.322;10.232;2023-07-13T15:53:28;20.00;99.90
38090;DHT22;23904;52.322;10.232;2023-07-13T15:55:56;20.10;99.90
38090;DHT22;23904;52.322;10.232;2023-07-13T15:58:22;20.20;99.90
38090;DHT22;23904;52.322;10.232;2023-07-13T16:00:48;20.10;99.90
38090;DHT22;23904;52.322;10.232;2023-07-13T16:03:21;19.80;99.90
38090;DHT22;23904;52.322;10.232;2023-07-13T16:05:47;19.70;99.90